Time;durP1;ratioP1;P1;durP2;ratioP2;P2;SDS_P1;SDS_P2;PMS_P1;PMS_P2;Temp;Humidity;BMP_temperature;BMP_pressure;BME280_temperature;BME280_humidity;BME280_pressure;Samples;Min_cycle;Max_cycle;Signal;HPM_P1;HPM_P2
2021/01/30 00:02:08;;;;;;;3.67;0.82;;;9.00;99.90;;;;;;5095565;28;20079;-66
2021/01/30 00:04:36;;;;;;;5.88;0.88;;;9.00;99.90;;;;;;5095247;28;20123;-62
2021/01/30 00:07:03;;;;;;;4.80;1.67;;;9.00;99.90;;;;;;5094308;28;20043;-64
2021/01/30 00:09:29;;;;;;;2.30;1.17;;;9.00;99.90;;;;;;5095643;28;20028;-61
2021/01/30 00:11:58;;;;;;;5.57;1.20;;;9.00;99.90;;;;;;5095886;28;20025;-63
2021/01/30 00:14:33;;;;;;;2.67;0.77;;;9.00;99.90;;;;;;5095016;28;20050;-61
2021/01/30 00:17:01;;;;;;;2.47;0.60;;;9.00;99.90;;;;;;5095224;28;20024;-65
2021/01/30 00:19:27;;;;;;;3.30;0.98;;;9.00;99.90;;;;;;5094884;28;20216;-61
2021/01/30 00:21:56;;;;;;;4.10;1.25;;;9.10;99.90;;;;;;5093683;28;20024;-61
2021/01/30 00:24:22;;;;;;;4.07;1.23;;;9.00;99.90;;;;;;5094407;28;20621;-60
2021/01/30 00:26:53;;;;;;;3.63;0.77;;;9.00;99.90;;;;;;5095879;28;20529;-63
2021/01/30 00:29:20;;;;;;;2.15;0.57;;;9.00;99.90;;;;;;5094903;28;20024;-61
2021/01/30 00:31:46;;;;;;;3.58;1.55;;;9.00;99.90;;;;;;5095318;28;20043;-62
2021/01/30 00:34:12;;;;;;;9.88;1.40;;;9.00;99.90;;;;;;5094402;28;20032;-63
2021/01/30 00:36:38;;;;;;;4.82;0.90;;;9.00;99.90;;;;;;5093896;28;20393;-62
2021/01/30 00:39:05;;;;;;;1.60;0.98;;;9.00;99.90;;;;;;5093146;28;20032;-66
2021/01/30 00:41:30;;;;;;;3.33;0.90;;;9.00;99.90;;;;;;5093676;28;20024;-60
2021/01/30 00:43:56;;;;;;;6.30;1.10;;;9.00;99.90;;;;;;5093728;28;20166;-62
2021/01/30 00:46:22;;;;;;;4.88;1.17;;;9.00;99.90;;;;;;5092507;28;20645;-61
2021/01/30 00:48:48;;;;;;;5.75;0.90;;;9.10;99.90;;;;;;5093811;28;20119;-63
2021/01/30 00:51:21;;;;;;;3.35;1.13;;;9.00;99.90;;;;;;5094403;28;20024;-66
2021/01/30 00:53:47;;;;;;;5.00;0.90;;;9.00;99.90;;;;;;5096193;28;20068;-62
2021/01/30 00:56:13;;;;;;;3.85;1.10;;;9.00;99.90;;;;;;5095106;28;20028;-64
2021/01/30 00:58:39;;;;;;;5.07;1.10;;;9.00;99.90;;;;;;5094372;28;20119;-64
2021/01/30 01:01:06;;;;;;;6.47;0.98;;;9.00;99.90;;;;;;5093669;28;20020;-66
2021/01/30 01:03:31;;;;;;;4.57;1.77;;;9.00;99.90;;;;;;5094966;28;20024;-61
2021/01/30 01:05:57;;;;;;;6.43;1.85;;;8.90;99.90;;;;;;5094683;28;20031;-61
2021/01/30 01:08:23;;;;;;;7.88;1.55;;;9.00;99.90;;;;;;5092956;28;20031;-60
2021/01/30 01:10:49;;;;;;;4.15;1.05;;;8.90;99.90;;;;;;5092812;28;20028;-62
2021/01/30 01:13:14;;;;;;;5.57;1.20;;;8.90;99.90;;;;;;5093512;28;20036;-62
2021/01/30 01:15:40;;;;;;;5.53;1.75;;;8.90;99.90;;;;;;5093164;28;20024;-62
2021/01/30 01:18:06;;;;;;;3.58;1.10;;;8.90;99.90;;;;;;5094062;28;20135;-67
2021/01/30 01:20:32;;;;;;;5.88;1.58;;;8.90;99.90;;;;;;5094935;28;20023;-63
2021/01/30 01:22:57;;;;;;;2.63;1.08;;;8.90;99.90;;;;;;5095087;28;20143;-61
2021/01/30 01:25:23;;;;;;;7.45;1.88;;;8.90;99.90;;;;;;5092320;28;20054;-60
2021/01/30 01:27:50;;;;;;;3.83;1.40;;;8.90;99.90;;;;;;5092924;28;20118;-61
2021/01/30 01:30:18;;;;;;;3.35;0.93;;;8.80;99.90;;;;;;5092148;28;20049;-60
2021/01/30 01:32:44;;;;;;;5.88;1.50;;;8.80;99.90;;;;;;5092783;28;20059;-60
2021/01/30 01:35:16;;;;;;;3.13;0.98;;;8.80;99.90;;;;;;5093438;28;20062;-62
2021/01/30 01:37:43;;;;;;;3.05;1.00;;;8.80;99.90;;;;;;5091894;28;20465;-60
2021/01/30 01:40:10;;;;;;;4.53;1.20;;;8.90;99.90;;;;;;5091791;28;20081;-64
2021/01/30 01:42:36;;;;;;;3.75;1.00;;;8.80;99.90;;;;;;5092563;28;20032;-61
2021/01/30 01:45:01;;;;;;;4.95;1.40;;;8.80;99.90;;;;;;5093760;28;20058;-60
2021/01/30 01:47:30;;;;;;;5.72;1.23;;;8.80;99.90;;;;;;5091920;28;20208;-61
2021/01/30 01:49:58;;;;;;;6.10;1.83;;;8.80;99.90;;;;;;5093409;28;20112;-60
2021/01/30 01:52:32;;;;;;;6.97;1.42;;;8.80;99.90;;;;;;5093339;28;20024;-61
2021/01/30 01:55:04;;;;;;;5.07;1.10;;;8.80;99.90;;;;;;5092496;28;20026;-59
2021/01/30 01:57:31;;;;;;;7.97;2.25;;;8.80;99.90;;;;;;5093253;28;20043;-61
2021/01/30 01:59:57;;;;;;;3.38;0.98;;;8.80;99.90;;;;;;5092572;28;20119;-60
2021/01/30 02:02:31;;;;;;;2.25;0.80;;;8.80;99.90;;;;;;5091727;28;20062;-61
2021/01/30 02:05:17;;;;;;;2.72;0.75;;;8.80;99.90;;;;;;5093404;28;20031;-60
2021/01/30 02:07:44;;;;;;;5.10;1.30;;;8.80;99.90;;;;;;5093428;28;20119;-60
2021/01/30 02:10:13;;;;;;;3.45;1.25;;;8.80;99.90;;;;;;5092721;28;20028;-66
2021/01/30 02:12:42;;;;;;;6.38;1.48;;;8.70;99.90;;;;;;5093433;28;20032;-60
2021/01/30 02:15:09;;;;;;;5.78;1.58;;;8.80;99.90;;;;;;5092966;28;20032;-65
2021/01/30 02:17:54;;;;;;;3.72;1.10;;;8.70;99.90;;;;;;5091708;28;20169;-62
2021/01/30 02:20:37;;;;;;;6.22;1.67;;;8.70;99.90;;;;;;5093196;28;20020;-64
2021/01/30 02:23:12;;;;;;;6.03;0.98;;;8.70;99.90;;;;;;5094146;28;20040;-63
2021/01/30 02:25:50;;;;;;;2.78;1.25;;;8.80;99.90;;;;;;5094971;28;20028;-64
2021/01/30 02:28:57;;;;;;;3.13;0.90;;;8.80;99.90;;;;;;5093237;28;20362;-65
2021/01/30 02:31:48;;;;;;;7.30;1.05;;;8.80;99.90;;;;;;5038142;28;20128;-60
2021/01/30 02:34:26;;;;;;;2.50;0.77;;;8.70;99.90;;;;;;5092134;28;20028;-61
2021/01/30 02:37:30;;;;;;;6.68;1.00;;;8.70;99.90;;;;;;5091773;28;20028;-59
2021/01/30 02:40:03;;;;;;;2.17;0.60;;;8.70;99.90;;;;;;5093339;28;20105;-60
2021/01/30 02:42:33;;;;;;;2.50;0.70;;;8.60;99.90;;;;;;5093539;28;20648;-61
2021/01/30 02:45:09;;;;;;;4.88;0.70;;;8.60;99.90;;;;;;5093272;28;20056;-63
2021/01/30 02:47:46;;;;;;;3.25;1.52;;;8.60;99.90;;;;;;5093043;28;20085;-62
2021/01/30 02:50:21;;;;;;;1.23;0.80;;;8.60;99.90;;;;;;5092029;28;20028;-65
2021/01/30 02:52:50;;;;;;;4.25;0.90;;;8.60;99.90;;;;;;5093133;28;20042;-63
2021/01/30 02:55:18;;;;;;;5.20;0.80;;;8.60;99.90;;;;;;5090931;28;20024;-60
2021/01/30 02:57:45;;;;;;;2.65;0.80;;;8.60;99.90;;;;;;5091557;28;20031;-60
2021/01/30 03:00:14;;;;;;;4.32;0.98;;;8.60;99.90;;;;;;5090985;28;20032;-64
2021/01/30 03:02:40;;;;;;;2.42;0.68;;;8.50;99.90;;;;;;5091934;28;20028;-60
2021/01/30 03:05:09;;;;;;;4.20;0.88;;;8.50;99.90;;;;;;5092390;28;20366;-63
2021/01/30 03:07:56;;;;;;;3.42;0.70;;;8.50;99.90;;;;;;5073962;28;20028;-61
2021/01/30 03:10:34;;;;;;;2.50;0.95;;;8.50;99.90;;;;;;5092147;28;20024;-64
2021/01/30 03:13:11;;;;;;;3.35;0.65;;;8.40;99.90;;;;;;5092788;28;20032;-60
2021/01/30 03:15:51;;;;;;;2.88;0.60;;;8.40;99.90;;;;;;5092635;28;20032;-61
2021/01/30 03:18:20;;;;;;;1.95;0.60;;;8.40;99.90;;;;;;5090898;28;20059;-61
2021/01/30 03:20:46;;;;;;;3.88;0.90;;;8.40;99.90;;;;;;5091995;28;20028;-60
2021/01/30 03:23:15;;;;;;;5.55;0.90;;;8.40;99.90;;;;;;5092567;28;20016;-65
2021/01/30 03:25:42;;;;;;;5.75;0.98;;;8.30;99.90;;;;;;5097133;28;20032;-61
2021/01/30 03:28:10;;;;;;;3.00;0.70;;;8.40;99.90;;;;;;5096913;28;20081;-60
2021/01/30 03:30:35;;;;;;;3.83;1.05;;;8.40;99.90;;;;;;5096631;28;20028;-62
2021/01/30 03:33:01;;;;;;;3.50;0.68;;;8.30;99.90;;;;;;5094615;28;20449;-60
2021/01/30 03:35:28;;;;;;;1.23;0.45;;;8.30;99.90;;;;;;5095422;28;20028;-60
2021/01/30 03:37:54;;;;;;;1.77;0.70;;;8.30;99.90;;;;;;5094875;28;20032;-60
2021/01/30 03:40:21;;;;;;;6.82;1.10;;;8.30;99.90;;;;;;5095425;28;20070;-62
2021/01/30 03:42:47;;;;;;;4.35;0.90;;;8.30;99.90;;;;;;5096528;28;20063;-61
2021/01/30 03:45:18;;;;;;;3.47;0.80;;;8.30;99.90;;;;;;5095747;28;20473;-63
2021/01/30 03:47:44;;;;;;;3.80;0.97;;;8.30;99.90;;;;;;5096042;28;20024;-59
2021/01/30 03:50:11;;;;;;;2.40;0.60;;;8.20;99.90;;;;;;5095956;28;20628;-60
2021/01/30 03:52:37;;;;;;;6.07;0.98;;;8.20;99.90;;;;;;5095790;28;20035;-63
2021/01/30 03:55:04;;;;;;;4.57;0.75;;;8.30;99.90;;;;;;5078080;28;20377;-60
2021/01/30 03:57:30;;;;;;;0.98;0.43;;;8.30;99.90;;;;;;5095890;28;20414;-61
2021/01/30 03:59:56;;;;;;;1.80;0.77;;;8.20;99.90;;;;;;5095722;28;20049;-62
2021/01/30 04:02:21;;;;;;;3.83;0.98;;;8.30;99.90;;;;;;5093179;28;20516;-60
2021/01/30 04:04:47;;;;;;;4.35;0.75;;;8.30;99.90;;;;;;5093910;28;20043;-60
2021/01/30 04:07:14;;;;;;;2.28;0.80;;;8.30;99.90;;;;;;5094458;28;20488;-66
2021/01/30 04:09:40;;;;;;;5.50;0.90;;;8.20;99.90;;;;;;5095121;28;20039;-62
2021/01/30 04:12:06;;;;;;;3.20;0.68;;;8.10;99.90;;;;;;5095461;28;20373;-60
2021/01/30 04:14:33;;;;;;;5.30;2.67;;;8.10;99.90;;;;;;5094766;28;20024;-60
2021/01/30 04:16:59;;;;;;;5.00;0.90;;;8.10;99.90;;;;;;5093837;28;20068;-60
2021/01/30 04:19:25;;;;;;;3.28;0.90;;;8.10;99.90;;;;;;5094491;28;20048;-62
2021/01/30 04:21:50;;;;;;;2.30;0.60;;;8.10;99.90;;;;;;5093794;28;20070;-59
2021/01/30 04:24:17;;;;;;;3.05;0.40;;;8.00;99.90;;;;;;5093353;28;20020;-61
2021/01/30 04:26:46;;;;;;;4.47;0.82;;;7.90;99.90;;;;;;5095019;28;20438;-60
2021/01/30 04:29:12;;;;;;;3.65;0.68;;;7.90;99.90;;;;;;5095287;28;20032;-61
2021/01/30 04:31:38;;;;;;;2.50;0.73;;;7.90;99.90;;;;;;5093076;28;20031;-60
2021/01/30 04:34:03;;;;;;;5.55;0.70;;;7.90;99.90;;;;;;5095219;28;20031;-63
2021/01/30 04:36:29;;;;;;;6.75;1.40;;;7.90;99.90;;;;;;5093525;28;20028;-61
2021/01/30 04:38:55;;;;;;;3.08;0.55;;;7.90;99.90;;;;;;5076842;28;20086;-59
2021/01/30 04:41:45;;;;;;;1.83;0.40;;;7.90;99.90;;;;;;5093174;28;20484;-59
2021/01/30 04:44:17;;;;;;;2.83;0.50;;;7.90;99.90;;;;;;5095146;28;20065;-61
2021/01/30 04:47:16;;;;;;;2.72;0.68;;;7.90;99.90;;;;;;5093693;28;20070;-59
2021/01/30 04:50:05;;;;;;;1.73;0.95;;;7.90;99.90;;;;;;5094462;28;20378;-61
2021/01/30 04:52:44;;;;;;;2.17;0.25;;;7.90;99.90;;;;;;5031746;28;20053;-60
2021/01/30 04:55:25;;;;;;;2.95;0.77;;;8.00;99.90;;;;;;5032549;28;20037;-63
2021/01/30 04:57:59;;;;;;;5.45;0.98;;;8.00;99.90;;;;;;5032608;28;20041;-60
2021/01/30 05:00:38;;;;;;;1.60;0.68;;;8.00;99.90;;;;;;5015267;28;20042;-59
2021/01/30 05:03:28;;;;;;;2.58;0.55;;;8.00;99.90;;;;;;5016122;28;20446;-59
2021/01/30 05:05:59;;;;;;;3.80;0.50;;;8.00;99.90;;;;;;5015903;28;20033;-60
2021/01/30 05:08:57;;;;;;;1.42;0.50;;;8.10;99.90;;;;;;5031673;28;20033;-59
2021/01/30 05:11:26;;;;;;;1.55;0.52;;;8.00;99.90;;;;;;5031095;28;20418;-60
2021/01/30 05:13:55;;;;;;;1.80;0.40;;;8.00;99.90;;;;;;5032321;28;20048;-59
2021/01/30 05:16:26;;;;;;;2.47;0.30;;;8.00;99.90;;;;;;5031554;28;20052;-64
2021/01/30 05:18:57;;;;;;;2.53;0.88;;;8.00;99.90;;;;;;5031830;28;20085;-60
2021/01/30 05:21:49;;;;;;;3.95;0.40;;;8.00;99.90;;;;;;5031336;28;20071;-64
2021/01/30 05:24:15;;;;;;;;;;;8.00;99.90;;;;;;5032354;28;20083;-61
2021/01/30 05:27:11;;;;;;;2.83;0.40;;;8.00;99.90;;;;;;5031130;28;19948;-59
2021/01/30 05:29:57;;;;;;;3.60;0.35;;;8.00;99.90;;;;;;5062319;28;20047;-62
2021/01/30 05:32:56;;;;;;;4.03;0.60;;;8.10;99.90;;;;;;5082731;28;20044;-59
2021/01/30 05:35:26;;;;;;;2.55;0.22;;;8.10;99.90;;;;;;5093417;28;20024;-64
2021/01/30 05:38:04;;;;;;;1.38;0.20;;;8.00;99.90;;;;;;5093848;28;20035;-59
2021/01/30 05:40:44;;;;;;;2.65;0.60;;;8.10;99.90;;;;;;5092558;28;20032;-59
2021/01/30 05:43:29;;;;;;;1.85;0.30;;;8.00;99.90;;;;;;5088753;28;20056;-63
2021/01/30 05:46:00;;;;;;;1.13;0.22;;;8.00;99.90;;;;;;5093864;28;20028;-63
2021/01/30 05:48:35;;;;;;;1.20;0.57;;;8.00;99.90;;;;;;5091561;28;20055;-60
2021/01/30 05:51:19;;;;;;;1.30;0.55;;;8.10;99.90;;;;;;5093945;28;20521;-61
2021/01/30 05:53:45;;;;;;;0.68;0.55;;;8.10;99.90;;;;;;5093101;28;20416;-63
2021/01/30 05:56:11;;;;;;;1.38;0.30;;;8.10;99.90;;;;;;5093573;28;20077;-62
2021/01/30 05:58:43;;;;;;;1.08;0.20;;;8.00;99.90;;;;;;5094069;28;20034;-62
2021/01/30 06:01:25;;;;;;;0.50;0.22;;;8.00;99.90;;;;;;5094713;28;20028;-67
2021/01/30 06:04:05;;;;;;;2.40;0.40;;;8.00;99.90;;;;;;5094520;28;20062;-61
2021/01/30 06:06:40;;;;;;;6.57;0.47;;;8.00;99.90;;;;;;5092177;28;20050;-63
2021/01/30 06:09:09;;;;;;;0.70;0.30;;;7.90;99.90;;;;;;5092704;28;20539;-66
2021/01/30 06:12:04;;;;;;;1.17;0.28;;;7.80;99.90;;;;;;5092343;28;20028;-69
2021/01/30 06:14:37;;;;;;;2.35;0.35;;;7.90;99.90;;;;;;5091625;28;20079;-59
2021/01/30 06:17:25;;;;;;;2.05;0.50;;;7.80;99.90;;;;;;5091797;28;20036;-59
2021/01/30 06:20:02;;;;;;;3.40;0.50;;;7.80;99.90;;;;;;5091731;28;20024;-60
2021/01/30 06:22:28;;;;;;;2.55;0.45;;;7.80;99.90;;;;;;5090830;28;20413;-59
2021/01/30 06:24:53;;;;;;;2.60;0.57;;;7.80;99.90;;;;;;5091724;28;20036;-62
2021/01/30 06:27:39;;;;;;;2.83;0.63;;;7.80;99.90;;;;;;5091405;28;20024;-61
2021/01/30 06:30:31;;;;;;;1.65;1.08;;;7.70;99.90;;;;;;5091568;28;20032;-59
2021/01/30 06:33:02;;;;;;;2.55;0.55;;;7.70;99.90;;;;;;5085951;28;20036;-60
2021/01/30 06:35:41;;;;;;;0.90;0.50;;;7.70;99.90;;;;;;5091980;28;20031;-60
2021/01/30 06:38:17;;;;;;;2.22;0.60;;;7.70;99.90;;;;;;5091781;28;20035;-61
2021/01/30 06:41:02;;;;;;;2.53;0.40;;;7.60;99.90;;;;;;5092007;28;20043;-60
2021/01/30 06:43:57;;;;;;;1.70;0.55;;;7.60;99.90;;;;;;5090251;28;20400;-60
2021/01/30 06:46:25;;;;;;;3.28;0.75;;;7.60;99.90;;;;;;5079104;28;20040;-66
2021/01/30 06:48:53;;;;;;;1.52;0.38;;;7.70;99.90;;;;;;5091202;28;20058;-60
2021/01/30 06:51:35;;;;;;;1.27;0.70;;;7.70;99.90;;;;;;5092627;28;20504;-60
2021/01/30 06:54:23;;;;;;;3.60;0.68;;;7.80;99.90;;;;;;5092736;28;20035;-60
2021/01/30 06:56:59;;;;;;;2.10;0.85;;;7.70;99.90;;;;;;5092036;28;20032;-61
2021/01/30 06:59:36;;;;;;;4.40;0.68;;;7.80;99.90;;;;;;5092446;28;20161;-66
2021/01/30 07:02:11;;;;;;;1.48;0.88;;;7.70;99.90;;;;;;5092731;28;20036;-60
2021/01/30 07:04:55;;;;;;;2.38;1.67;;;7.80;99.90;;;;;;5091794;28;20035;-59
2021/01/30 07:07:30;;;;;;;3.90;1.60;;;7.80;99.90;;;;;;5092570;28;20028;-60
2021/01/30 07:10:24;;;;;;;1.40;0.77;;;7.90;99.90;;;;;;5092510;28;20150;-60
2021/01/30 07:12:59;;;;;;;2.80;0.90;;;7.90;99.90;;;;;;5092086;28;20055;-61
2021/01/30 07:15:27;;;;;;;3.55;1.15;;;8.00;99.90;;;;;;5091294;28;20119;-65
2021/01/30 07:18:28;;;;;;;5.15;1.63;;;8.00;99.90;;;;;;5091479;28;20098;-63
2021/01/30 07:21:02;;;;;;;2.72;0.90;;;8.00;99.90;;;;;;5093102;28;20420;-61
2021/01/30 07:23:55;;;;;;;3.58;1.63;;;8.00;99.90;;;;;;5092176;28;20028;-63
2021/01/30 07:26:41;;;;;;;3.65;1.38;;;8.00;99.90;;;;;;5092882;28;20560;-66
2021/01/30 07:29:27;;;;;;;10.13;1.70;;;8.00;99.90;;;;;;5092601;28;20059;-63
2021/01/30 07:32:11;;;;;;;8.85;1.70;;;7.90;99.90;;;;;;5092254;28;20024;-62
2021/01/30 07:34:55;;;;;;;6.03;1.70;;;7.80;99.90;;;;;;5090317;28;20529;-60
2021/01/30 07:37:28;;;;;;;16.67;2.97;;;7.90;99.90;;;;;;5090978;28;20159;-60
2021/01/30 07:40:04;;;;;;;15.15;2.40;;;7.90;99.90;;;;;;5090875;28;20527;-60
2021/01/30 07:43:02;;;;;;;6.45;2.80;;;7.80;99.90;;;;;;5091192;28;20054;-61
2021/01/30 07:45:34;;;;;;;8.23;2.33;;;7.90;99.90;;;;;;5092133;28;20043;-65
2021/01/30 07:48:06;;;;;;;3.22;2.20;;;8.00;99.90;;;;;;5091547;28;20081;-72
2021/01/30 07:50:37;;;;;;;1.58;1.23;;;8.00;99.90;;;;;;5090864;28;20073;-64
2021/01/30 07:53:14;;;;;;;3.47;1.10;;;8.00;99.90;;;;;;5091504;28;20490;-61
2021/01/30 07:56:03;;;;;;;2.17;1.13;;;8.00;99.90;;;;;;5091998;28;20522;-63
2021/01/30 07:58:47;;;;;;;2.03;0.88;;;7.90;99.90;;;;;;5090503;28;20035;-67
2021/01/30 08:01:34;;;;;;;2.80;0.63;;;7.90;99.90;;;;;;5092061;28;20024;-61
2021/01/30 08:04:19;;;;;;;1.33;0.63;;;7.90;99.90;;;;;;5092063;28;20024;-61
2021/01/30 08:06:52;;;;;;;2.42;0.73;;;7.90;99.90;;;;;;5089874;28;20063;-62
2021/01/30 08:09:41;;;;;;;2.50;0.90;;;7.90;99.90;;;;;;5092132;28;20056;-62
2021/01/30 08:12:19;;;;;;;4.18;1.92;;;7.80;99.90;;;;;;5094567;28;20020;-60
2021/01/30 08:14:49;;;;;;;2.47;1.60;;;7.30;99.90;;;;;;5094996;28;20028;-62
2021/01/30 08:17:33;;;;;;;3.83;2.30;;;7.10;99.90;;;;;;5095810;28;20064;-61
2021/01/30 08:20:19;;;;;;;2.47;2.28;;;6.60;99.90;;;;;;5094772;28;20059;-60
2021/01/30 08:22:50;;;;;;;3.40;2.25;;;6.60;99.90;;;;;;5095327;28;20035;-61
2021/01/30 08:25:48;;;;;;;3.60;2.10;;;6.40;99.90;;;;;;5094517;28;20038;-61
2021/01/30 08:28:29;;;;;;;2.00;1.85;;;6.50;99.90;;;;;;5081950;28;20044;-65
2021/01/30 08:30:56;;;;;;;2.63;1.75;;;6.40;99.90;;;;;;5094763;28;20111;-60
2021/01/30 08:33:22;;;;;;;2.78;2.47;;;6.30;99.90;;;;;;5095281;28;20426;-63
2021/01/30 08:35:57;;;;;;;4.20;2.10;;;6.30;99.90;;;;;;5093248;28;20473;-65
2021/01/30 08:38:23;;;;;;;2.90;2.50;;;6.00;99.90;;;;;;5089101;28;20089;-59
2021/01/30 08:40:49;;;;;;;3.22;2.55;;;6.10;99.90;;;;;;5092717;28;20032;-62
2021/01/30 08:43:38;;;;;;;3.78;2.97;;;6.00;99.90;;;;;;5095259;28;20461;-61
2021/01/30 08:46:28;;;;;;;4.78;3.60;;;5.90;99.90;;;;;;5093570;28;20473;-61
2021/01/30 08:49:04;;;;;;;5.60;3.45;;;5.60;99.90;;;;;;5093925;28;20107;-62
2021/01/30 08:51:30;;;;;;;5.78;4.57;;;5.60;99.90;;;;;;5093822;28;20512;-64
2021/01/30 08:53:58;;;;;;;6.60;4.85;;;5.30;99.90;;;;;;5093129;28;20032;-61
2021/01/30 08:57:03;;;;;;;7.47;5.53;;;5.30;99.90;;;;;;5092866;28;20039;-64
2021/01/30 08:59:49;;;;;;;7.43;5.53;;;5.40;99.90;;;;;;5031648;28;20114;-62
2021/01/30 09:02:41;;;;;;;10.65;6.13;;;5.30;99.90;;;;;;5032507;28;20037;-61
2021/01/30 09:05:10;;;;;;;9.75;7.28;;;5.30;99.90;;;;;;5015576;28;20532;-61
2021/01/30 09:07:45;;;;;;;10.32;6.57;;;5.20;99.90;;;;;;5015410;28;20164;-64
2021/01/30 09:10:22;;;;;;;9.35;7.20;;;5.30;99.90;;;;;;5033566;28;20130;-62
2021/01/30 09:12:59;;;;;;;11.52;7.38;;;5.10;99.90;;;;;;5014628;28;20025;-62
2021/01/30 09:15:40;;;;;;;11.15;8.15;;;5.00;99.90;;;;;;5015479;28;20030;-61
2021/01/30 09:18:35;;;;;;;9.77;7.22;;;5.00;99.90;;;;;;5032078;28;20060;-61
2021/01/30 09:21:26;;;;;;;10.07;7.35;;;4.80;99.90;;;;;;5032488;28;20030;-61
2021/01/30 09:24:10;;;;;;;8.50;6.72;;;4.80;99.90;;;;;;5032461;28;20048;-70
2021/01/30 09:26:51;;;;;;;9.85;6.80;;;4.70;99.90;;;;;;5016602;28;20042;-63
2021/01/30 09:29:23;;;;;;;9.80;7.03;;;4.80;99.90;;;;;;5022844;28;20030;-62
2021/01/30 09:31:59;;;;;;;9.30;6.57;;;4.70;99.90;;;;;;5093673;28;20093;-60
2021/01/30 09:34:29;;;;;;;8.27;6.65;;;4.70;99.90;;;;;;5094347;28;20024;-61
2021/01/30 09:36:55;;;;;;;9.10;7.20;;;4.50;99.90;;;;;;5092727;28;20031;-62
2021/01/30 09:39:33;;;;;;;11.63;8.27;;;4.60;99.90;;;;;;5093003;28;20094;-62
2021/01/30 09:42:16;;;;;;;10.23;7.03;;;4.40;99.90;;;;;;5092243;28;20465;-62
2021/01/30 09:44:42;;;;;;;12.93;7.55;;;4.30;99.90;;;;;;5090274;28;20115;-62
2021/01/30 09:47:27;;;;;;;9.32;7.18;;;4.30;99.90;;;;;;5093226;28;20030;-63
2021/01/30 09:50:03;;;;;;;9.02;6.82;;;4.50;99.90;;;;;;5092622;28;20477;-65
2021/01/30 09:52:29;;;;;;;8.30;6.68;;;4.50;99.90;;;;;;5091209;28;20042;-62
2021/01/30 09:54:59;;;;;;;8.52;7.20;;;4.40;99.90;;;;;;5090498;28;20640;-60
2021/01/30 09:57:27;;;;;;;17.63;8.70;;;4.30;99.90;;;;;;5092010;28;20043;-64
2021/01/30 09:59:59;;;;;;;10.23;7.63;;;4.40;99.90;;;;;;5092355;28;20039;-62
2021/01/30 10:02:27;;;;;;;8.32;7.00;;;4.50;99.90;;;;;;5093212;28;20020;-60
2021/01/30 10:05:12;;;;;;;10.65;7.47;;;4.60;99.90;;;;;;5090954;28;20039;-60
2021/01/30 10:07:39;;;;;;;12.68;7.53;;;4.80;99.90;;;;;;5091500;28;20028;-69
2021/01/30 10:10:28;;;;;;;8.35;6.60;;;5.60;99.90;;;;;;5075946;28;20021;-62
2021/01/30 10:12:56;;;;;;;9.50;7.45;;;5.50;99.90;;;;;;5072125;28;20585;-60
2021/01/30 10:15:31;;;;;;;9.25;7.30;;;5.20;99.90;;;;;;5073013;28;20031;-63
2021/01/30 10:18:02;;;;;;;7.20;6.22;;;4.90;99.90;;;;;;5070667;28;20041;-62
2021/01/30 10:20:49;;;;;;;7.57;5.93;;;4.70;99.90;;;;;;5072617;28;20048;-62
2021/01/30 10:23:32;;;;;;;9.40;7.03;;;4.80;99.90;;;;;;5073520;28;20032;-62
2021/01/30 10:26:06;;;;;;;9.00;6.97;;;4.80;99.90;;;;;;5071088;28;20040;-62
2021/01/30 10:29:03;;;;;;;7.50;6.15;;;4.60;99.90;;;;;;5071334;28;20323;-62
2021/01/30 10:31:57;;;;;;;6.97;6.28;;;4.50;99.90;;;;;;5055967;28;20036;-63
2021/01/30 10:34:32;;;;;;;6.82;6.15;;;4.60;99.90;;;;;;5077528;28;20043;-63
2021/01/30 10:37:02;;;;;;;9.25;7.13;;;4.60;99.90;;;;;;5088632;28;20531;-62
2021/01/30 10:39:34;;;;;;;9.17;7.10;;;4.60;99.90;;;;;;5088445;28;20052;-61
2021/01/30 10:42:07;;;;;;;8.18;7.38;;;4.70;99.90;;;;;;5092671;28;20012;-62
2021/01/30 10:44:35;;;;;;;9.15;7.28;;;4.70;99.90;;;;;;5090183;28;20040;-65
2021/01/30 10:47:03;;;;;;;13.98;8.25;;;4.80;99.90;;;;;;5092022;28;20074;-64
2021/01/30 10:49:33;;;;;;;10.38;7.43;;;4.70;99.90;;;;;;5091445;28;20024;-61
2021/01/30 10:52:21;;;;;;;9.75;8.05;;;4.70;99.90;;;;;;5090095;28;20020;-63
2021/01/30 10:54:46;;;;;;;9.65;6.85;;;4.70;99.90;;;;;;5090079;28;20103;-63
2021/01/30 10:57:18;;;;;;;7.75;6.90;;;4.60;99.90;;;;;;5090169;28;20100;-62
2021/01/30 10:59:55;;;;;;;10.63;7.68;;;4.60;99.90;;;;;;5089799;28;20073;-63
2021/01/30 11:02:26;;;;;;;7.97;7.10;;;4.80;99.90;;;;;;5091355;28;20457;-62
2021/01/30 11:05:14;;;;;;;8.48;6.88;;;4.80;99.90;;;;;;5091357;28;20504;-61
2021/01/30 11:07:55;;;;;;;8.13;7.30;;;4.80;99.90;;;;;;5088477;28;20039;-66
2021/01/30 11:10:27;;;;;;;7.80;7.03;;;4.70;99.90;;;;;;5091349;28;20180;-60
2021/01/30 11:12:53;;;;;;;;;;;4.50;99.90;;;;;;5092248;28;20123;-61
2021/01/30 11:15:24;;;;;;;7.07;6.38;;;4.50;99.90;;;;;;5090780;28;19919;-62
2021/01/30 11:18:10;;;;;;;8.07;7.28;;;4.70;99.90;;;;;;5092475;28;20055;-64
2021/01/30 11:20:46;;;;;;;8.93;6.25;;;4.60;99.90;;;;;;5093417;28;20024;-67
2021/01/30 11:23:36;;;;;;;7.65;6.95;;;4.60;99.90;;;;;;5092728;28;20055;-61
2021/01/30 11:26:15;;;;;;;10.55;7.18;;;4.70;99.90;;;;;;5092624;28;20488;-63
2021/01/30 11:28:46;;;;;;;7.13;6.43;;;4.80;99.90;;;;;;5087506;28;20032;-62
2021/01/30 11:31:13;;;;;;;7.38;6.55;;;4.80;99.90;;;;;;5091919;28;20027;-62
2021/01/30 11:33:39;;;;;;;7.28;6.47;;;4.80;99.90;;;;;;5091648;28;20028;-68
2021/01/30 11:36:09;;;;;;;7.03;6.30;;;5.00;99.90;;;;;;5092254;28;20024;-63
2021/01/30 11:38:35;;;;;;;7.75;6.82;;;5.00;99.90;;;;;;5093774;28;20031;-62
2021/01/30 11:41:01;;;;;;;7.45;6.43;;;5.00;99.90;;;;;;5093625;28;20064;-67
2021/01/30 11:43:28;;;;;;;7.45;6.68;;;5.20;99.90;;;;;;5092336;28;20043;-61
2021/01/30 11:45:55;;;;;;;8.68;6.63;;;5.20;99.90;;;;;;5095425;28;20024;-63
2021/01/30 11:48:23;;;;;;;7.55;6.63;;;5.20;99.90;;;;;;5096185;28;20028;-63
2021/01/30 11:50:51;;;;;;;7.28;6.57;;;5.20;99.90;;;;;;5096229;28;20036;-67
2021/01/30 11:53:21;;;;;;;7.50;6.75;;;5.40;99.90;;;;;;5095146;28;20099;-63
2021/01/30 11:55:47;;;;;;;7.50;6.60;;;5.30;99.90;;;;;;5077617;28;20023;-68
2021/01/30 11:58:15;;;;;;;7.03;6.32;;;5.30;99.90;;;;;;5095063;28;20049;-64
2021/01/30 12:00:41;;;;;;;7.22;6.53;;;5.50;99.90;;;;;;5095943;28;20032;-66
2021/01/30 12:03:11;;;;;;;6.68;6.07;;;5.40;99.90;;;;;;5096496;28;20462;-62
2021/01/30 12:05:36;;;;;;;8.27;6.70;;;5.30;99.90;;;;;;5095479;28;20419;-64
2021/01/30 12:08:02;;;;;;;7.35;6.60;;;5.20;99.90;;;;;;5094717;28;20036;-61
2021/01/30 12:10:28;;;;;;;7.38;5.95;;;5.30;99.90;;;;;;5094006;28;20028;-60
2021/01/30 12:12:53;;;;;;;8.02;6.80;;;5.40;99.90;;;;;;5094500;28;20093;-62
2021/01/30 12:15:19;;;;;;;7.50;6.45;;;5.20;99.90;;;;;;5094097;28;20114;-62
2021/01/30 12:17:47;;;;;;;7.00;6.30;;;5.20;99.90;;;;;;5093931;28;20052;-61
2021/01/30 12:20:19;;;;;;;6.50;5.88;;;5.30;99.90;;;;;;5095182;28;20024;-62
2021/01/30 12:22:46;;;;;;;5.57;4.93;;;5.40;99.90;;;;;;5093091;28;20028;-64
2021/01/30 12:25:12;;;;;;;4.97;4.45;;;5.30;99.90;;;;;;5095775;28;20314;-61
2021/01/30 12:27:41;;;;;;;4.78;4.28;;;5.40;99.90;;;;;;5093847;28;20028;-63
2021/01/30 12:30:08;;;;;;;4.97;4.30;;;5.10;99.90;;;;;;5093874;28;20024;-65
2021/01/30 12:32:35;;;;;;;5.32;4.60;;;5.00;99.90;;;;;;5091900;28;20473;-65
2021/01/30 12:35:02;;;;;;;7.10;5.15;;;5.10;99.90;;;;;;5092684;28;20069;-61
2021/01/30 12:37:28;;;;;;;4.90;4.40;;;5.30;99.90;;;;;;5094583;28;20028;-61
2021/01/30 12:39:54;;;;;;;6.38;5.57;;;5.40;99.90;;;;;;5093867;28;20039;-61
2021/01/30 12:42:20;;;;;;;8.52;6.00;;;5.20;99.90;;;;;;5093519;28;20059;-62
2021/01/30 12:44:47;;;;;;;4.97;4.40;;;5.10;99.90;;;;;;5093963;28;20378;-61
2021/01/30 12:47:25;;;;;;;6.72;4.50;;;5.00;99.90;;;;;;5093258;28;20020;-63
2021/01/30 12:49:50;;;;;;;5.72;4.25;;;4.80;99.90;;;;;;5095031;28;20100;-63
2021/01/30 12:52:16;;;;;;;4.95;4.32;;;4.60;99.90;;;;;;5093223;28;20047;-62
2021/01/30 12:54:42;;;;;;;5.70;4.35;;;4.80;99.90;;;;;;5092072;28;20085;-63
2021/01/30 12:57:08;;;;;;;5.50;4.78;;;4.90;99.90;;;;;;5093784;28;20036;-63
2021/01/30 12:59:33;;;;;;;5.03;4.40;;;5.00;99.90;;;;;;5091513;28;20035;-62
2021/01/30 13:01:59;;;;;;;6.57;4.90;;;5.00;99.90;;;;;;5090884;28;20081;-60
2021/01/30 13:04:25;;;;;;;7.47;5.30;;;5.00;99.90;;;;;;5091456;28;20028;-63
2021/01/30 13:06:51;;;;;;;5.13;4.35;;;5.00;99.90;;;;;;5092482;28;20158;-62
2021/01/30 13:09:20;;;;;;;5.30;4.35;;;5.20;99.90;;;;;;5092383;28;20031;-62
2021/01/30 13:11:46;;;;;;;6.45;4.43;;;5.10;99.90;;;;;;5092415;28;20523;-61
2021/01/30 13:14:12;;;;;;;7.93;5.32;;;5.10;99.90;;;;;;5093999;28;20024;-63
2021/01/30 13:16:39;;;;;;;8.02;6.07;;;5.00;99.90;;;;;;5092640;28;20381;-61
2021/01/30 13:19:04;;;;;;;5.53;4.22;;;4.90;99.90;;;;;;5077917;28;20048;-65
2021/01/30 13:21:32;;;;;;;5.40;4.15;;;4.90;99.90;;;;;;5074029;28;20033;-64
2021/01/30 13:23:58;;;;;;;5.38;4.88;;;5.00;99.90;;;;;;5071320;28;20040;-62
2021/01/30 13:26:24;;;;;;;5.07;4.13;;;4.80;99.90;;;;;;5074670;28;20474;-62
2021/01/30 13:28:50;;;;;;;5.45;4.35;;;4.70;99.90;;;;;;5072153;28;20063;-61
2021/01/30 13:31:16;;;;;;;4.85;4.25;;;4.80;99.90;;;;;;5072632;28;20055;-61